Time;durP1;ratioP1;P1;durP2;ratioP2;P2;SDS_P1;SDS_P2;PMS_P1;PMS_P2;Temp;Humidity;BMP_temperature;BMP_pressure;BME280_temperature;BME280_humidity;BME280_pressure;Samples;Min_cycle;Max_cycle;Signal;HPM_P1;HPM_P2
2022/05/26 00:01:20;;;;;;;23.00;5.13;;;;;;;14.22;100.00;101657.47;5030999;28;20392;-63
2022/05/26 00:03:47;;;;;;;30.00;5.82;;;;;;;14.20;100.00;101659.31;5028742;28;20053;-63
2022/05/26 00:06:14;;;;;;;30.40;6.00;;;;;;;14.19;100.00;101659.41;5030991;28;20033;-63
2022/05/26 00:08:41;;;;;;;22.88;5.38;;;;;;;14.21;100.00;101669.06;5012327;28;20029;-63
2022/05/26 00:11:13;;;;;;;27.42;5.30;;;;;;;14.23;100.00;101655.66;5011386;28;20496;-63
2022/05/26 00:13:41;;;;;;;28.40;5.35;;;;;;;14.26;100.00;101660.84;5030622;28;20033;-63
2022/05/26 00:16:07;;;;;;;23.38;5.40;;;;;;;14.22;100.00;101657.47;5028129;28;20022;-63
2022/05/26 00:18:33;;;;;;;20.35;5.28;;;;;;;14.24;100.00;101676.88;4994205;28;20061;-63
2022/05/26 00:20:59;;;;;;;27.67;5.10;;;;;;;14.23;100.00;101675.19;5012193;28;20167;-63
2022/05/26 00:23:24;;;;;;;27.10;4.93;;;;;;;14.21;100.00;101677.03;5031207;28;20182;-64
2022/05/26 00:25:49;;;;;;;27.15;5.43;;;;;;;14.19;100.00;101665.59;4994883;28;20068;-63
2022/05/26 00:28:15;;;;;;;25.80;5.60;;;;;;;14.21;100.00;101669.06;5027539;28;20031;-64
2022/05/26 00:30:40;;;;;;;28.45;5.65;;;;;;;14.23;100.00;101671.63;4997015;28;20071;-63
2022/05/26 00:33:07;;;;;;;25.75;5.30;;;;;;;14.22;100.00;101681.44;5030782;28;20559;-64
2022/05/26 00:35:34;;;;;;;26.92;5.20;;;;;;;14.21;100.00;101674.38;5008659;28;20033;-63
2022/05/26 00:38:04;;;;;;;26.33;5.20;;;;;;;14.23;100.00;101675.19;4997100;28;20051;-63
2022/05/26 00:40:31;;;;;;;28.08;5.30;;;;;;;14.28;100.00;101663.44;5010869;28;20028;-64
2022/05/26 00:42:57;;;;;;;23.48;5.13;;;;;;;14.29;100.00;101681.16;5030439;28;20038;-63
2022/05/26 00:45:22;;;;;;;26.17;5.63;;;;;;;14.28;100.00;101682.09;5029856;28;20032;-63
2022/05/26 00:47:49;;;;;;;23.75;4.72;;;;;;;14.30;100.00;101681.09;5012122;28;20041;-63
2022/05/26 00:50:20;;;;;;;30.80;4.97;;;;;;;14.30;100.00;101696.22;5031724;28;20046;-63
2022/05/26 00:53:12;;;;;;;26.63;5.13;;;;;;;14.30;100.00;101689.06;5033749;28;20596;-63
2022/05/26 00:55:46;;;;;;;23.98;4.63;;;;;;;14.32;100.00;101689.88;5033315;28;20032;-63
2022/05/26 00:58:19;;;;;;;23.50;4.75;;;;;;;14.31;100.00;101690.81;5014468;28;20109;-63
2022/05/26 01:00:45;;;;;;;26.20;5.32;;;;;;;14.31;100.00;101695.25;5022335;28;20041;-64
2022/05/26 01:03:18;;;;;;;24.77;4.80;;;;;;;14.31;100.00;101696.13;5031444;28;20097;-63
2022/05/26 01:05:52;;;;;;;30.40;5.32;;;;;;;14.30;100.00;101697.06;5015180;28;20029;-63
2022/05/26 01:08:27;;;;;;;20.35;4.43;;;;;;;14.27;100.00;101697.19;5030436;28;20025;-63
2022/05/26 01:10:53;;;;;;;23.23;5.00;;;;;;;14.31;100.00;101703.25;5029685;28;20022;-63
2022/05/26 01:13:20;;;;;;;22.83;5.60;;;;;;;14.30;100.00;101702.41;5030640;28;20493;-63
2022/05/26 01:15:56;;;;;;;25.48;5.10;;;;;;;14.29;100.00;101699.81;5030433;28;20029;-64
2022/05/26 01:18:37;;;;;;;28.10;4.95;;;;;;;14.30;100.00;101697.06;5014694;28;20025;-63
2022/05/26 01:21:16;;;;;;;18.75;4.05;;;;;;;14.30;100.00;101705.06;5032632;28;20032;-63
2022/05/26 01:23:56;;;;;;;25.35;4.65;;;;;;;14.28;100.00;101714.06;5031625;28;20033;-63
2022/05/26 01:26:27;;;;;;;24.92;4.63;;;;;;;14.21;100.00;101719.66;5024808;28;20021;-63
2022/05/26 01:29:12;;;;;;;20.98;4.78;;;;;;;14.19;100.00;101713.53;5029118;28;20436;-64
2022/05/26 01:31:59;;;;;;;25.13;3.97;;;;;;;14.18;100.00;101708.28;5015362;28;20037;-63
2022/05/26 01:34:46;;;;;;;25.63;4.32;;;;;;;14.18;100.00;101710.94;4993569;28;1070761;-64
2022/05/26 01:37:34;;;;;;;20.38;4.13;;;;;;;14.20;100.00;101723.25;5034822;28;20073;-63
2022/05/26 01:40:19;;;;;;;16.50;3.70;;;;;;;14.20;100.00;101723.25;5033158;28;20021;-63
2022/05/26 01:43:03;;;;;;;17.25;3.90;;;;;;;14.24;100.00;101727.50;5027736;28;20033;-63
2022/05/26 01:45:44;;;;;;;19.30;3.92;;;;;;;14.24;100.00;101718.66;5008539;28;20069;-62
2022/05/26 01:48:15;;;;;;;18.52;4.95;;;;;;;14.26;100.00;101714.13;5019592;28;20120;-63
2022/05/26 01:50:52;;;;;;;16.92;4.47;;;;;;;14.28;100.00;101724.72;5026121;28;20017;-62
2022/05/26 01:53:20;;;;;;;12.25;4.35;;;;;;;14.30;100.00;101723.72;5031827;28;20037;-63
2022/05/26 01:55:49;;;;;;;18.48;5.22;;;;;;;14.29;100.00;101718.47;5032028;28;20037;-63
2022/05/26 01:58:29;;;;;;;17.15;4.85;;;;;;;14.24;100.00;101726.66;5033375;28;20037;-65
2022/05/26 02:00:56;;;;;;;17.77;5.63;;;;;;;14.19;100.00;101731.31;5026281;28;20128;-64
2022/05/26 02:03:26;;;;;;;17.50;4.90;;;;;;;14.14;100.00;101725.34;5019893;28;20068;-63
2022/05/26 02:05:56;;;;;;;17.88;4.60;;;;;;;14.17;100.00;101738.50;5033895;28;20021;-63
2022/05/26 02:08:46;;;;;;;15.73;5.00;;;;;;;14.23;99.55;101739.13;5025866;28;20052;-63
2022/05/26 02:11:15;;;;;;;13.98;4.93;;;;;;;14.26;99.47;101746.09;5009808;28;20029;-63
2022/05/26 02:13:43;;;;;;;11.70;4.00;;;;;;;14.25;99.54;101747.88;5008411;28;20476;-63
2022/05/26 02:16:24;;;;;;;14.63;4.25;;;;;;;14.24;99.38;101738.16;5010622;28;20033;-64
2022/05/26 02:18:59;;;;;;;12.38;3.67;;;;;;;14.30;99.17;101753.00;5027366;28;20474;-61
2022/05/26 02:22:00;;;;;;;12.88;4.43;;;;;;;14.22;99.14;101749.81;5027302;28;20084;-62
2022/05/26 02:24:33;;;;;;;12.27;2.85;;;;;;;14.24;98.86;101748.81;5025930;28;20030;-62
2022/05/26 02:26:59;;;;;;;10.10;2.85;;;;;;;14.21;99.01;101754.28;5016776;28;20080;-62
2022/05/26 02:32:11;;;;;;;10.40;2.30;;;;;;;14.14;99.70;101758.16;5033551;28;20048;-63
2022/05/26 02:34:39;;;;;;;8.95;2.58;;;;;;;14.12;99.31;101756.50;5015485;28;20128;-63
2022/05/26 02:37:08;;;;;;;10.35;3.22;;;;;;;14.10;99.38;101772.56;5017808;28;20034;-63
2022/05/26 02:39:33;;;;;;;11.18;2.78;;;;;;;14.03;99.78;101776.44;5025979;28;20061;-63
2022/05/26 02:41:59;;;;;;;9.27;2.70;;;;;;;14.00;100.00;101773.91;5012873;28;20037;-62
2022/05/26 02:44:28;;;;;;;9.45;2.80;;;;;;;14.01;100.00;101771.16;5019186;28;20029;-62
2022/05/26 02:47:12;;;;;;;9.77;2.95;;;;;;;14.01;100.00;101786.28;5023940;28;20049;-63
2022/05/26 02:50:10;;;;;;;9.35;2.72;;;;;;;13.96;100.00;101788.28;5024208;28;20033;-63
2022/05/26 02:53:04;;;;;;;9.50;2.95;;;;;;;13.91;100.00;101783.16;5011054;28;20611;-62
2022/05/26 02:55:50;;;;;;;6.47;2.58;;;;;;;13.93;100.00;101790.16;5002928;28;20033;-62
2022/05/26 02:58:33;;;;;;;12.68;2.90;;;;;;;13.92;100.00;101795.53;4994753;28;20132;-62
2022/05/26 03:01:14;;;;;;;10.38;2.70;;;;;;;13.90;100.00;101795.63;5012265;28;20025;-65
2022/05/26 03:03:48;;;;;;;16.45;3.70;;;;;;;13.88;100.00;101797.47;5027759;28;20057;-62
2022/05/26 03:06:16;;;;;;;8.95;2.75;;;;;;;13.87;100.00;101797.53;5023370;28;20129;-63
2022/05/26 03:08:43;;;;;;;12.82;2.90;;;;;;;13.84;100.00;101790.56;5027826;28;20033;-63
2022/05/26 03:11:17;;;;;;;11.27;2.95;;;;;;;13.79;100.00;101802.34;5026239;28;20029;-63
2022/05/26 03:13:43;;;;;;;10.82;3.30;;;;;;;13.73;100.00;101800.78;5031527;28;20176;-63
2022/05/26 03:16:08;;;;;;;14.55;3.30;;;;;;;13.69;100.00;101801.88;5026042;28;20115;-62
2022/05/26 03:18:34;;;;;;;11.73;3.42;;;;;;;13.64;100.00;101802.06;4998526;28;20048;-62
2022/05/26 03:21:02;;;;;;;17.85;3.40;;;;;;;13.66;100.00;101807.31;5011792;28;20030;-63
2022/05/26 03:23:28;;;;;;;10.75;2.92;;;;;;;13.66;100.00;101804.63;5027843;28;20136;-63
2022/05/26 03:25:56;;;;;;;14.48;3.60;;;;;;;13.64;100.00;101807.38;5013497;28;20528;-62
2022/05/26 03:28:22;;;;;;;18.52;3.45;;;;;;;13.66;100.00;101807.31;5010056;28;20026;-63
2022/05/26 03:30:48;;;;;;;13.55;3.53;;;;;;;13.63;100.00;101807.44;5022759;28;20495;-64
2022/05/26 03:33:13;;;;;;;15.30;3.33;;;;;;;13.64;100.00;101807.38;5026601;28;20057;-63
2022/05/26 03:41:07;;;;;;;12.43;3.22;;;;;;;13.53;100.00;101814.94;5025928;28;20036;-63
2022/05/26 03:43:45;;;;;;;11.57;3.03;;;;;;;13.53;100.00;101809.63;4996117;28;20038;-63
2022/05/26 03:46:11;;;;;;;12.43;3.20;;;;;;;13.52;100.00;101810.56;5030525;28;20036;-63
2022/05/26 03:48:38;;;;;;;14.20;3.53;;;;;;;13.50;100.00;101805.28;5031005;28;20388;-64
2022/05/26 03:51:04;;;;;;;11.18;3.13;;;;;;;13.46;100.00;101810.81;5032446;28;20120;-64
2022/05/26 03:53:29;;;;;;;11.98;2.78;;;;;;;13.40;100.00;101814.59;5031339;28;20021;-64
2022/05/26 03:55:55;;;;;;;13.93;3.28;;;;;;;13.35;100.00;101814.75;5029112;28;20444;-63
2022/05/26 03:58:20;;;;;;;9.63;2.80;;;;;;;13.36;100.00;101815.59;5030447;28;20083;-63
2022/05/26 04:00:46;;;;;;;14.43;3.00;;;;;;;13.36;100.00;101827.13;5030421;28;20021;-63
2022/05/26 04:03:11;;;;;;;11.77;3.03;;;;;;;13.36;100.00;101829.81;5027474;28;20033;-63
2022/05/26 04:05:37;;;;;;;10.43;2.92;;;;;;;13.38;100.00;101830.63;5011492;28;20037;-64
2022/05/26 04:08:02;;;;;;;12.18;2.95;;;;;;;13.44;100.00;101829.50;4980189;28;20022;-63
2022/05/26 04:10:28;;;;;;;10.32;2.67;;;;;;;13.49;100.00;101832.84;5013835;28;20396;-63
2022/05/26 04:12:55;;;;;;;12.55;3.42;;;;;;;13.59;100.00;101839.53;5030872;28;20392;-63
2022/05/26 04:15:21;;;;;;;11.90;3.30;;;;;;;13.70;100.00;101843.53;5024660;28;20056;-63
2022/05/26 04:17:46;;;;;;;13.07;3.03;;;;;;;13.71;100.00;101846.13;4979820;28;20041;-63
2022/05/26 04:20:16;;;;;;;12.65;3.10;;;;;;;13.70;100.00;101846.19;5018256;28;20061;-63
2022/05/26 04:22:42;;;;;;;13.23;3.03;;;;;;;13.69;100.00;101860.41;5013010;28;20029;-63
2022/05/26 04:25:08;;;;;;;13.02;3.63;;;;;;;13.65;100.00;101864.16;5013016;28;20079;-63
2022/05/26 04:27:34;;;;;;;11.85;2.95;;;;;;;13.58;100.00;101864.41;5029325;28;20026;-64
2022/05/26 04:30:03;;;;;;;10.88;2.65;;;;;;;13.64;100.00;101870.41;5011998;28;20030;-62
2022/05/26 04:32:29;;;;;;;13.23;3.25;;;;;;;13.66;100.00;101866.75;5028078;28;20083;-63
2022/05/26 04:34:54;;;;;;;13.27;3.00;;;;;;;13.66;100.00;101861.41;5029804;28;20037;-63
2022/05/26 04:37:21;;;;;;;12.38;2.83;;;;;;;13.65;100.00;101870.31;4996625;28;20025;-62
2022/05/26 04:39:47;;;;;;;11.27;2.85;;;;;;;13.69;100.00;101871.94;5031374;28;20060;-63
2022/05/26 04:42:13;;;;;;;12.48;2.88;;;;;;;13.73;100.00;101875.34;4995183;28;20091;-63
2022/05/26 04:44:42;;;;;;;9.88;2.63;;;;;;;13.81;100.00;101869.69;5029178;28;20388;-63
2022/05/26 04:47:08;;;;;;;8.85;2.95;;;;;;;13.88;100.00;101871.16;5027764;28;20033;-63
2022/05/26 04:49:37;;;;;;;11.65;3.00;;;;;;;13.97;100.00;101877.91;5011613;28;20040;-64
2022/05/26 04:52:08;;;;;;;11.75;2.83;;;;;;;13.92;100.00;101881.59;5028978;28;20155;-63
2022/05/26 04:54:37;;;;;;;12.95;3.22;;;;;;;13.90;100.00;101886.16;5028986;28;20029;-63
2022/05/26 04:57:05;;;;;;;14.48;2.60;;;;;;;13.88;100.00;101884.47;5028018;28;20469;-63
2022/05/26 04:59:31;;;;;;;8.07;3.03;;;;;;;13.80;100.00;101884.81;5030847;28;20104;-62
2022/05/26 05:01:56;;;;;;;12.63;3.00;;;;;;;13.77;100.00;101887.56;5028808;28;20155;-62
2022/05/26 05:04:24;;;;;;;13.77;2.95;;;;;;;13.77;100.00;101896.44;5009945;28;20120;-62
2022/05/26 05:06:50;;;;;;;11.38;3.47;;;;;;;13.81;100.00;101898.97;5012804;28;20025;-63
2022/05/26 05:09:15;;;;;;;7.28;2.55;;;;;;;13.81;100.00;101896.31;5013839;28;20068;-63
2022/05/26 05:11:41;;;;;;;9.55;2.67;;;;;;;13.81;100.00;101906.97;5027460;28;20118;-63
2022/05/26 05:14:06;;;;;;;12.20;3.13;;;;;;;13.84;100.00;101901.53;5029283;28;20788;-62
2022/05/26 05:16:37;;;;;;;13.15;3.40;;;;;;;13.88;100.00;101903.13;5011747;28;20045;-63
2022/05/26 05:19:03;;;;;;;12.55;3.10;;;;;;;13.87;100.00;101901.38;5013560;28;20028;-63
2022/05/26 05:21:52;;;;;;;14.32;3.05;;;;;;;13.88;100.00;101909.31;5017882;28;20113;-64
2022/05/26 05:24:33;;;;;;;11.13;3.00;;;;;;;13.89;100.00;101904.84;5018979;28;20026;-63
2022/05/26 05:27:06;;;;;;;7.70;2.45;;;;;;;13.94;100.00;101916.19;5027493;28;20120;-63
2022/05/26 05:29:35;;;;;;;10.95;2.83;;;;;;;13.96;100.00;101908.97;5030475;28;20021;-64
2022/05/26 05:32:15;;;;;;;12.35;3.28;;;;;;;14.00;100.00;101917.72;5028353;28;20029;-64
2022/05/26 05:34:46;;;;;;;13.20;2.90;;;;;;;14.03;100.00;101922.94;5033009;28;20140;-62
2022/05/26 05:37:11;;;;;;;17.43;3.60;;;;;;;14.07;100.00;101917.38;5035005;28;20117;-63
2022/05/26 05:39:38;;;;;;;10.82;3.33;;;;;;;14.12;100.00;101921.63;5029051;28;20363;-64
2022/05/26 05:42:04;;;;;;;9.55;3.03;;;;;;;14.16;100.00;101928.59;5015264;28;20138;-64
2022/05/26 05:44:31;;;;;;;11.70;3.00;;;;;;;14.14;100.00;101925.97;5032417;28;20112;-64
2022/05/26 05:46:59;;;;;;;8.40;2.63;;;;;;;14.17;100.00;101930.31;5034294;28;20017;-62
2022/05/26 05:49:27;;;;;;;14.40;2.72;;;;;;;14.23;100.00;101938.03;5034199;28;20555;-64
2022/05/26 05:51:53;;;;;;;8.80;2.67;;;;;;;14.28;100.00;101935.19;5032537;28;20036;-63
2022/05/26 05:54:19;;;;;;;11.20;2.97;;;;;;;14.29;100.00;101935.13;5033763;28;20029;-63
2022/05/26 05:56:45;;;;;;;8.35;2.50;;;;;;;14.31;100.00;101943.91;5016256;28;20471;-63
2022/05/26 05:59:11;;;;;;;12.15;3.00;;;;;;;14.34;100.00;101938.44;5015833;28;20037;-64
2022/05/26 06:01:36;;;;;;;12.98;3.15;;;;;;;14.40;100.00;101942.66;5028766;28;20021;-64
2022/05/26 06:04:02;;;;;;;11.27;2.78;;;;;;;14.50;100.00;101940.44;5035306;28;20374;-64
2022/05/26 06:06:27;;;;;;;14.27;2.92;;;;;;;14.52;100.00;101950.09;5018949;28;20029;-62
2022/05/26 06:08:52;;;;;;;8.93;2.72;;;;;;;14.56;100.00;101941.03;5033494;28;20494;-63
2022/05/26 06:11:18;;;;;;;12.25;2.53;;;;;;;14.61;100.00;101958.66;5033727;28;20034;-62
2022/05/26 06:13:44;;;;;;;13.05;2.95;;;;;;;14.62;100.00;101965.72;5033382;28;20033;-63
2022/05/26 06:16:11;;;;;;;12.98;3.17;;;;;;;14.71;99.63;101957.34;5032854;28;20362;-63
2022/05/26 06:18:37;;;;;;;11.40;2.50;;;;;;;14.81;98.88;101966.66;5016147;28;20033;-63
2022/05/26 06:21:04;;;;;;;11.82;2.80;;;;;;;14.91;98.46;101964.41;5016013;28;20392;-63
2022/05/26 06:23:30;;;;;;;10.52;3.03;;;;;;;15.08;97.99;101955.66;5033303;28;20048;-64
2022/05/26 06:25:56;;;;;;;11.02;3.00;;;;;;;15.19;96.16;101961.38;5015588;28;20508;-63
2022/05/26 06:31:06;;;;;;;12.88;2.92;;;;;;;15.49;95.37;101984.88;5012129;28;20132;-64
2022/05/26 06:38:59;;;;;;;9.63;2.60;;;;;;;15.65;93.23;101984.16;5032723;28;20052;-64
2022/05/26 06:44:23;;;;;;;8.25;2.38;;;;;;;15.38;93.64;101990.75;4979794;28;20030;-64
2022/05/26 06:46:48;;;;;;;7.97;2.35;;;;;;;15.31;93.77;101981.28;5012071;28;20041;-63
2022/05/26 06:49:14;;;;;;;12.07;2.70;;;;;;;15.30;94.08;101982.22;5005777;28;20062;-64
2022/05/26 06:51:41;;;;;;;7.38;2.50;;;;;;;15.31;93.32;101993.78;5014534;28;20026;-63
2022/05/26 06:54:10;;;;;;;11.75;2.70;;;;;;;15.29;94.43;101985.81;5033266;28;20467;-63
2022/05/26 06:56:35;;;;;;;7.75;2.40;;;;;;;15.38;93.59;101961.38;5015430;28;20029;-62
2022/05/26 06:59:01;;;;;;;9.18;2.55;;;;;;;15.43;92.90;101987.00;5032424;28;20030;-63
2022/05/26 07:01:26;;;;;;;9.35;2.25;;;;;;;15.48;92.57;101996.50;5031774;28;20034;-63
2022/05/26 07:03:52;;;;;;;11.93;2.50;;;;;;;15.54;91.94;101998.03;5032867;28;20029;-64
2022/05/26 07:06:24;;;;;;;10.73;2.78;;;;;;;15.52;92.28;102000.75;5032730;28;20025;-64
2022/05/26 07:08:50;;;;;;;8.57;2.22;;;;;;;15.57;91.64;102009.44;5014005;28;20014;-64
2022/05/26 07:11:16;;;;;;;8.60;2.30;;;;;;;15.56;91.75;102009.47;5029666;28;20026;-61
2022/05/26 07:13:42;;;;;;;10.02;2.63;;;;;;;15.60;91.72;102008.44;5014628;28;20067;-62
2022/05/26 07:16:10;;;;;;;7.90;2.60;;;;;;;15.65;90.40;102016.19;5014122;28;20033;-61
2022/05/26 07:18:36;;;;;;;11.00;2.45;;;;;;;15.66;90.88;102018.78;5031724;28;20033;-63
2022/05/26 07:21:03;;;;;;;10.10;2.60;;;;;;;15.69;nan;102017.78;5014087;28;20026;-62
2022/05/26 07:23:29;;;;;;;10.60;2.60;;;;;;;15.77;89.41;102009.41;5027600;28;20028;-62
2022/05/26 07:25:55;;;;;;;9.00;2.58;;;;;;;15.72;89.59;102018.50;5032538;28;20110;-62
2022/05/26 07:28:23;;;;;;;9.27;2.50;;;;;;;15.87;90.82;102014.28;5031935;28;20454;-60
2022/05/26 07:30:49;;;;;;;9.23;2.20;;;;;;;16.00;88.77;102011.88;5030317;28;20018;-61
2022/05/26 07:33:15;;;;;;;9.15;3.03;;;;;;;16.24;87.68;102011.59;5032658;28;20095;-63
2022/05/26 07:35:40;;;;;;;9.20;2.40;;;;;;;16.25;88.46;102015.97;5014427;28;20021;-62
2022/05/26 07:41:22;;;;;;;12.32;2.60;;;;;;;16.66;86.43;102023.72;4939323;28;20492;-63
2022/05/26 07:43:57;;;;;;;10.15;2.97;;;;;;;16.68;86.35;102020.97;4948404;29;20526;-63
2022/05/26 07:46:24;;;;;;;10.60;2.40;;;;;;;16.67;85.41;102014.72;4998541;28;20047;-64
2022/05/26 07:48:50;;;;;;;8.75;2.20;;;;;;;16.70;85.57;102025.28;4996288;28;20477;-63
2022/05/26 07:51:16;;;;;;;10.23;2.72;;;;;;;16.83;85.08;102027.34;5026995;28;20119;-64
2022/05/26 07:53:41;;;;;;;9.38;2.50;;;;;;;16.81;84.32;102034.56;5010878;28;20072;-63
2022/05/26 07:56:09;;;;;;;13.02;2.70;;;;;;;16.80;84.10;102039.06;5014116;28;20025;-64
2022/05/26 07:58:35;;;;;;;10.23;2.60;;;;;;;16.87;84.27;102020.88;4997404;28;20028;-64
2022/05/26 08:01:01;;;;;;;13.23;3.05;;;;;;;16.90;83.37;102035.91;5030061;28;20059;-64
2022/05/26 08:03:26;;;;;;;12.40;2.90;;;;;;;16.82;84.29;102033.63;5031754;28;20079;-63
2022/05/26 08:05:52;;;;;;;10.20;2.85;;;;;;;16.94;83.88;102024.97;5031878;28;20037;-62
2022/05/26 08:08:18;;;;;;;9.43;2.60;;;;;;;16.86;82.64;102045.88;5030162;28;20084;-63
2022/05/26 08:10:43;;;;;;;10.75;2.67;;;;;;;16.85;82.72;102044.16;5029910;28;20048;-65
2022/05/26 08:13:08;;;;;;;7.43;2.15;;;;;;;16.93;82.58;102038.44;5030331;28;20033;-64
2022/05/26 08:15:34;;;;;;;11.90;2.42;;;;;;;16.94;83.42;102046.38;5031430;28;20053;-64
2022/05/26 08:17:59;;;;;;;9.82;2.50;;;;;;;17.10;80.76;102041.09;5031603;28;20492;-61
2022/05/26 08:20:25;;;;;;;8.75;2.10;;;;;;;16.91;81.23;102046.53;4997522;28;20037;-63
2022/05/26 08:22:51;;;;;;;7.60;2.22;;;;;;;16.91;81.77;102057.25;5030789;28;20036;-63
2022/05/26 08:25:17;;;;;;;9.60;2.30;;;;;;;17.06;81.69;102046.66;4992416;28;20107;-63
2022/05/26 08:27:42;;;;;;;7.22;2.10;;;;;;;17.17;80.16;102037.16;5023760;28;20435;-63
2022/05/26 08:30:08;;;;;;;10.63;2.63;;;;;;;17.27;80.25;102050.88;5028179;28;20044;-63
2022/05/26 08:32:34;;;;;;;5.35;2.35;;;;;;;17.44;79.18;102058.03;5035900;28;20048;-63
2022/05/26 08:35:02;;;;;;;11.07;2.70;;;;;;;17.71;79.39;102069.97;5026468;28;20064;-62
2022/05/26 08:37:28;;;;;;;9.27;2.22;;;;;;;17.95;77.23;102075.78;5050666;28;20032;-63
2022/05/26 08:39:54;;;;;;;9.00;2.60;;;;;;;17.94;76.96;102071.38;5050823;28;20021;-62
2022/05/26 08:42:24;;;;;;;13.40;2.60;;;;;;;18.71;75.03;102074.09;5051171;28;20392;-60
2022/05/26 08:44:55;;;;;;;9.55;2.50;;;;;;;20.20;69.48;102077.38;5013364;28;20496;-63
2022/05/26 08:47:26;;;;;;;8.57;2.55;;;;;;;21.10;64.47;102077.59;5013685;28;20037;-62
2022/05/26 08:50:01;;;;;;;;;;;;;;;20.89;65.00;102081.78;5014434;28;20037;-63
2022/05/26 08:52:35;;;;;;;9.88;2.42;;;;;;;20.43;65.92;102077.69;5030866;28;19938;-64
2022/05/26 08:55:04;;;;;;;11.57;3.03;;;;;;;20.24;67.29;102094.19;5030906;28;20056;-64
2022/05/26 08:57:50;;;;;;;10.70;2.55;;;;;;;20.77;64.01;102088.91;5030284;28;20021;-64
2022/05/26 09:00:19;;;;;;;8.15;2.58;;;;;;;20.71;64.26;102087.47;5012293;28;20037;-64
2022/05/26 09:02:45;;;;;;;8.68;2.47;;;;;;;20.12;66.01;102101.22;5030580;28;20474;-63
2022/05/26 09:05:17;;;;;;;10.68;2.75;;;;;;;19.69;68.33;102099.44;5030824;28;20029;-64
2022/05/26 09:13:39;;;;;;;12.43;2.78;;;;;;;21.03;62.81;102092.47;5033069;28;20068;-63
2022/05/26 09:16:06;;;;;;;11.43;2.92;;;;;;;21.97;59.68;102097.56;5028663;28;20041;-63
2022/05/26 09:18:32;;;;;;;13.45;2.65;;;;;;;22.21;56.90;102113.75;5016106;28;20437;-64
2022/05/26 09:21:12;;;;;;;9.57;2.50;;;;;;;22.07;56.73;102107.56;5038496;28;20039;-63
2022/05/26 09:23:42;;;;;;;11.43;2.50;;;;;;;22.27;56.30;102111.47;5014797;28;20048;-63
2022/05/26 09:26:11;;;;;;;12.45;2.60;;;;;;;23.03;51.28;102105.78;4998475;28;20449;-63
2022/05/26 09:28:49;;;;;;;8.52;2.80;;;;;;;22.48;53.04;102131.59;5019912;28;20045;-62
2022/05/26 09:31:33;;;;;;;9.38;2.78;;;;;;;21.83;56.30;102120.13;5012752;28;20400;-63
2022/05/26 09:34:23;;;;;;;9.57;2.60;;;;;;;22.26;53.84;102111.59;5030986;28;20053;-62
2022/05/26 09:37:02;;;;;;;8.55;2.60;;;;;;;22.18;53.74;102119.41;5030657;28;20044;-63
2022/05/26 09:39:34;;;;;;;8.43;2.60;;;;;;;21.92;54.65;102119.50;5014823;28;20021;-63
2022/05/26 09:42:01;;;;;;;9.77;2.63;;;;;;;23.07;51.25;102123.47;5016034;28;20022;-63
2022/05/26 09:44:46;;;;;;;6.90;2.72;;;;;;;22.98;48.08;102101.69;5033856;28;20094;-63
2022/05/26 09:47:43;;;;;;;9.70;2.60;;;;;;;22.96;49.19;102120.72;5016700;28;20132;-63
2022/05/26 09:50:16;;;;;;;9.15;2.28;;;;;;;21.74;51.77;102125.22;5002152;28;20050;-63
2022/05/26 09:52:49;;;;;;;6.80;2.15;;;;;;;22.14;51.98;102126.84;5024743;28;20110;-63
2022/05/26 09:55:47;;;;;;;9.68;2.65;;;;;;;22.18;52.53;102138.28;5033126;28;20025;-63
2022/05/26 09:58:27;;;;;;;8.57;2.53;;;;;;;22.27;51.17;102141.16;4996981;28;20117;-63
2022/05/26 10:01:01;;;;;;;10.48;2.70;;;;;;;22.41;51.99;102147.41;5001225;28;20029;-63
2022/05/26 10:03:49;;;;;;;10.15;2.58;;;;;;;22.03;51.58;102141.13;5027198;28;20017;-64
2022/05/26 10:06:42;;;;;;;8.60;2.35;;;;;;;21.73;53.43;102145.06;5013666;28;20034;-63
2022/05/26 10:09:23;;;;;;;9.27;2.88;;;;;;;21.95;51.35;102137.28;5033714;28;20484;-63
2022/05/26 10:12:04;;;;;;;7.45;2.40;;;;;;;20.56;54.25;102166.50;5033541;28;20021;-63
2022/05/26 10:14:49;;;;;;;13.13;2.70;;;;;;;20.61;57.83;102150.91;5033039;28;20104;-62
2022/05/26 10:17:36;;;;;;;8.05;2.20;;;;;;;20.46;58.03;102152.78;5031573;28;20060;-63
2022/05/26 10:20:16;;;;;;;8.65;2.40;;;;;;;20.79;57.18;102133.59;5013602;28;20532;-63
2022/05/26 10:22:49;;;;;;;12.90;2.72;;;;;;;22.23;50.89;102136.13;5005208;28;20028;-63
2022/05/26 10:25:37;;;;;;;9.55;2.45;;;;;;;22.64;49.59;102139.41;5015701;28;20033;-63
2022/05/26 10:28:20;;;;;;;10.93;2.50;;;;;;;21.66;51.76;102151.00;5016312;28;20030;-63
2022/05/26 10:31:10;;;;;;;9.27;2.40;;;;;;;21.14;52.07;102151.00;5015132;28;20029;-64
2022/05/26 10:34:10;;;;;;;11.95;2.78;;;;;;;20.16;56.19;102153.84;5032091;28;20045;-64
2022/05/26 10:36:52;;;;;;;7.47;2.05;;;;;;;20.18;56.64;102148.38;5006284;28;20060;-63
2022/05/26 10:39:30;;;;;;;10.00;2.88;;;;;;;21.05;56.67;102136.31;5033783;28;20025;-63
2022/05/26 10:42:07;;;;;;;10.02;2.53;;;;;;;22.00;51.84;102133.25;5031331;28;20091;-64
2022/05/26 10:44:48;;;;;;;9.73;2.42;;;;;;;22.29;50.07;102137.47;5028263;28;20083;-64
2022/05/26 10:47:22;;;;;;;5.30;1.98;;;;;;;22.41;49.47;102131.22;5030100;28;20472;-63
2022/05/26 10:49:59;;;;;;;9.90;2.20;;;;;;;23.00;46.09;102127.63;5033016;28;20392;-63
2022/05/26 10:52:49;;;;;;;7.63;2.17;;;;;;;22.46;46.92;102139.81;5013757;28;20135;-63
2022/05/26 10:55:25;;;;;;;8.30;2.17;;;;;;;22.34;47.88;102140.69;5022008;28;20025;-63
2022/05/26 10:58:10;;;;;;;8.93;2.28;;;;;;;22.17;49.14;102150.03;5032036;28;20075;-63
2022/05/26 11:00:35;;;;;;;10.10;2.30;;;;;;;21.70;48.46;102129.13;5014671;28;20022;-63
2022/05/26 11:03:23;;;;;;;8.82;2.05;;;;;;;21.46;50.16;102137.09;5007486;28;20431;-64
2022/05/26 11:05:53;;;;;;;5.80;2.05;;;;;;;21.69;49.56;102113.03;5018108;28;20029;-64
2022/05/26 11:08:30;;;;;;;6.85;2.03;;;;;;;21.52;51.34;102111.53;5032618;28;20072;-63
2022/05/26 11:10:56;;;;;;;7.22;2.10;;;;;;;21.34;52.61;102111.84;5032234;28;20033;-63
2022/05/26 11:13:33;;;;;;;7.00;1.88;;;;;;;21.17;52.29;102112.19;5038761;28;20025;-63
2022/05/26 11:19:18;;;;;;;12.05;2.22;;;;;;;21.76;53.34;102109.81;5013758;28;20080;-64
2022/05/26 11:21:44;;;;;;;6.78;2.22;;;;;;;22.19;50.06;102100.41;4994525;28;20449;-63
2022/05/26 11:24:10;;;;;;;6.68;2.00;;;;;;;22.73;49.27;102126.06;5017541;28;20037;-65
2022/05/26 11:26:47;;;;;;;7.18;2.30;;;;;;;22.82;46.94;102102.03;5032229;28;20049;-63
2022/05/26 11:29:38;;;;;;;6.88;2.10;;;;;;;22.63;45.63;102116.09;5031369;28;20032;-63
2022/05/26 11:38:12;;;;;;;8.07;2.20;;;;;;;22.09;46.98;102113.69;5031140;28;20076;-64
2022/05/26 11:41:04;;;;;;;11.80;2.63;;;;;;;21.36;49.68;102134.19;5031781;28;20064;-64
2022/05/26 11:44:07;;;;;;;8.50;2.05;;;;;;;21.02;49.82;102149.13;5011647;28;20057;-64
2022/05/26 11:46:41;;;;;;;6.68;1.90;;;;;;;20.45;51.87;102127.72;4951103;28;20102;-63
2022/05/26 11:49:30;;;;;;;7.78;2.10;;;;;;;20.48;52.96;102140.13;5013293;28;20038;-63
2022/05/26 11:51:56;;;;;;;7.30;2.00;;;;;;;21.06;51.28;102137.16;5007399;28;20545;-63
2022/05/26 11:54:52;;;;;;;7.38;1.90;;;;;;;20.73;53.42;102130.41;5030755;28;20034;-63
2022/05/26 11:57:33;;;;;;;7.95;2.13;;;;;;;21.30;51.56;102123.81;5032013;28;20060;-64
2022/05/26 12:00:14;;;;;;;8.52;2.15;;;;;;;21.21;51.57;102124.47;5012412;28;20434;-63
2022/05/26 12:02:40;;;;;;;5.53;1.70;;;;;;;20.92;51.67;102111.19;5027827;28;20032;-63
2022/05/26 12:05:30;;;;;;;6.93;1.92;;;;;;;20.34;53.73;102138.34;5024409;28;20033;-64
2022/05/26 12:08:03;;;;;;;6.82;1.73;;;;;;;20.12;55.44;102133.50;5026437;28;20051;-63
2022/05/26 12:10:37;;;;;;;5.90;1.90;;;;;;;19.83;56.91;102143.44;5031742;28;20048;-64
2022/05/26 12:13:26;;;;;;;5.15;1.77;;;;;;;19.51;57.33;102135.53;5012966;28;20034;-64
2022/05/26 12:16:19;;;;;;;5.80;1.60;;;;;;;19.41;56.67;102143.31;5024189;28;20140;-64